Time;durP1;ratioP1;P1;durP2;ratioP2;P2;SDS_P1;SDS_P2;PMS_P1;PMS_P2;Temp;Humidity;BMP_temperature;BMP_pressure;BME280_temperature;BME280_humidity;BME280_pressure;Samples;Min_cycle;Max_cycle;Signal;HPM_P1;HPM_P2
2021/11/27 00:01:12;;;;;;;1.17;1.10;;;22.90;35.50;;;;;;5044134;28;20052;-61
2021/11/27 00:03:39;;;;;;;0.98;0.98;;;22.90;35.50;;;;;;5048465;28;20421;-61
2021/11/27 00:06:08;;;;;;;1.13;1.02;;;22.90;35.60;;;;;;5052746;28;20121;-61
2021/11/27 00:08:35;;;;;;;0.80;0.80;;;22.90;35.60;;;;;;5045567;28;20084;-61
2021/11/27 00:11:03;;;;;;;0.80;0.80;;;22.90;35.60;;;;;;5042547;28;20047;-61
2021/11/27 00:13:31;;;;;;;0.70;0.70;;;22.80;35.50;;;;;;5051769;28;20052;-61
2021/11/27 00:15:59;;;;;;;0.90;0.90;;;22.90;35.60;;;;;;5063273;28;20101;-61
2021/11/27 00:18:27;;;;;;;0.63;0.63;;;22.80;35.50;;;;;;5045395;28;20054;-61
2021/11/27 00:20:59;;;;;;;1.15;1.05;;;22.90;35.60;;;;;;5040716;28;20433;-61
2021/11/27 00:23:29;;;;;;;0.80;0.80;;;22.80;35.60;;;;;;5040420;28;20402;-61
2021/11/27 00:25:57;;;;;;;0.80;0.80;;;22.80;35.60;;;;;;5043624;28;20857;-61
2021/11/27 00:28:25;;;;;;;0.52;0.50;;;22.80;35.60;;;;;;5044453;28;20060;-61
2021/11/27 00:30:58;;;;;;;1.05;1.05;;;22.80;35.60;;;;;;5043197;28;20136;-61
2021/11/27 00:33:26;;;;;;;0.95;0.90;;;22.80;35.60;;;;;;5051851;28;20048;-61
2021/11/27 00:35:53;;;;;;;0.70;0.70;;;22.80;35.60;;;;;;5064912;28;20055;-61
2021/11/27 00:38:22;;;;;;;0.90;0.90;;;22.80;35.60;;;;;;5063777;28;20148;-61
2021/11/27 00:40:50;;;;;;;0.85;0.85;;;22.80;35.60;;;;;;5063990;28;20044;-62
2021/11/27 00:43:17;;;;;;;0.60;0.60;;;22.80;35.60;;;;;;5046584;28;20134;-61
2021/11/27 00:45:47;;;;;;;0.90;0.90;;;22.80;35.60;;;;;;5065345;28;20091;-61
2021/11/27 00:48:16;;;;;;;0.70;0.70;;;22.80;35.60;;;;;;5064741;28;20056;-61
2021/11/27 00:50:48;;;;;;;0.80;0.80;;;22.80;35.70;;;;;;5063273;28;20091;-61
2021/11/27 00:53:15;;;;;;;0.75;0.75;;;22.80;35.70;;;;;;5043045;28;20155;-61
2021/11/27 00:55:43;;;;;;;0.70;0.70;;;22.80;35.70;;;;;;5044496;28;20071;-61
2021/11/27 00:58:10;;;;;;;1.05;0.93;;;22.80;35.70;;;;;;5044456;28;20052;-61
2021/11/27 01:00:42;;;;;;;0.65;0.65;;;22.80;35.70;;;;;;5043593;28;20086;-61
2021/11/27 01:03:12;;;;;;;0.70;0.70;;;22.80;35.70;;;;;;5043299;28;20059;-61
2021/11/27 01:05:40;;;;;;;0.90;0.90;;;22.80;35.70;;;;;;5043833;28;20048;-61
2021/11/27 01:08:07;;;;;;;0.82;0.82;;;22.80;35.70;;;;;;5044347;28;20056;-61
2021/11/27 01:10:41;;;;;;;0.68;0.68;;;22.80;35.70;;;;;;5043831;28;20057;-61
2021/11/27 01:13:09;;;;;;;0.60;0.60;;;22.80;35.70;;;;;;5048829;28;20048;-61
2021/11/27 01:15:37;;;;;;;0.85;0.85;;;22.80;35.70;;;;;;5064073;28;20071;-61
2021/11/27 01:18:06;;;;;;;1.00;0.90;;;22.80;35.70;;;;;;5024549;28;20068;-61
2021/11/27 01:20:39;;;;;;;1.10;1.00;;;22.80;35.70;;;;;;5024079;28;20060;-61
2021/11/27 01:23:07;;;;;;;0.80;0.80;;;22.70;35.60;;;;;;5036112;28;20083;-61
2021/11/27 01:25:35;;;;;;;0.95;0.90;;;22.80;35.60;;;;;;5044337;28;20052;-61
2021/11/27 01:28:02;;;;;;;1.02;0.95;;;22.80;35.60;;;;;;5043501;28;20056;-61
2021/11/27 01:30:30;;;;;;;0.90;0.90;;;22.80;35.70;;;;;;5043705;28;20044;-61
2021/11/27 01:32:58;;;;;;;0.90;0.90;;;22.80;35.60;;;;;;5051506;28;20048;-61
2021/11/27 01:35:25;;;;;;;0.70;0.70;;;22.80;35.60;;;;;;5064175;28;20421;-61
2021/11/27 01:37:52;;;;;;;1.00;1.00;;;22.80;35.60;;;;;;5064536;28;20105;-61
2021/11/27 01:40:24;;;;;;;0.98;0.98;;;22.80;35.60;;;;;;5063720;28;20404;-61
2021/11/27 01:42:52;;;;;;;0.70;0.70;;;22.80;35.60;;;;;;5045523;28;20792;-61
2021/11/27 01:45:21;;;;;;;1.20;1.10;;;22.80;35.60;;;;;;5062286;28;20051;-61
2021/11/27 01:47:53;;;;;;;1.15;1.00;;;22.80;35.60;;;;;;5064104;28;20082;-61
2021/11/27 01:50:22;;;;;;;1.23;1.13;;;22.80;35.60;;;;;;5063779;28;20094;-61
2021/11/27 01:52:49;;;;;;;1.00;1.00;;;22.70;35.50;;;;;;5045806;28;20059;-61
2021/11/27 01:55:17;;;;;;;1.05;0.85;;;22.70;35.50;;;;;;5063755;28;20125;-61
2021/11/27 01:57:45;;;;;;;1.25;1.15;;;22.70;35.60;;;;;;5064144;28;20105;-61
2021/11/27 02:00:16;;;;;;;0.98;0.98;;;22.70;35.60;;;;;;5063835;28;20048;-61
2021/11/27 02:02:44;;;;;;;1.02;0.93;;;22.70;35.60;;;;;;5044676;28;20076;-61
2021/11/27 02:05:12;;;;;;;0.95;0.90;;;22.70;35.60;;;;;;5047518;28;20053;-61
2021/11/27 02:07:40;;;;;;;1.30;1.20;;;22.70;35.60;;;;;;5048426;28;20048;-61
2021/11/27 02:10:11;;;;;;;1.00;0.90;;;22.70;35.60;;;;;;5048201;28;20060;-61
2021/11/27 02:12:39;;;;;;;0.95;0.95;;;22.70;35.60;;;;;;5052932;28;20051;-61
2021/11/27 02:15:07;;;;;;;1.00;1.00;;;22.70;35.60;;;;;;5066468;28;20113;-61
2021/11/27 02:17:35;;;;;;;0.82;0.82;;;22.70;35.60;;;;;;5051698;28;20079;-61
2021/11/27 02:20:04;;;;;;;0.95;0.95;;;22.70;35.60;;;;;;5047165;28;20052;-61
2021/11/27 02:22:34;;;;;;;0.98;0.88;;;22.70;35.70;;;;;;5050042;28;20598;-61
2021/11/27 02:25:05;;;;;;;0.90;0.80;;;22.70;35.60;;;;;;5047551;28;20048;-61
2021/11/27 02:27:33;;;;;;;0.90;0.90;;;22.70;35.60;;;;;;5047115;28;20059;-61
2021/11/27 02:30:00;;;;;;;1.35;0.82;;;22.70;35.60;;;;;;5046217;28;20382;-61
2021/11/27 02:32:27;;;;;;;1.00;0.90;;;22.70;35.70;;;;;;5048305;28;20048;-61
2021/11/27 02:34:54;;;;;;;0.82;0.82;;;22.60;35.60;;;;;;5067727;28;20060;-61
2021/11/27 02:37:22;;;;;;;0.90;0.90;;;22.60;35.60;;;;;;5067684;28;20052;-61
2021/11/27 02:39:49;;;;;;;1.08;1.02;;;22.60;35.60;;;;;;5067616;28;20051;-61
2021/11/27 02:42:17;;;;;;;1.10;0.95;;;22.60;35.60;;;;;;5053071;28;20060;-61
2021/11/27 02:44:45;;;;;;;0.85;0.85;;;22.60;35.60;;;;;;5066943;28;20056;-61
2021/11/27 02:47:13;;;;;;;1.20;1.10;;;22.60;35.60;;;;;;5066785;28;20459;-61
2021/11/27 02:49:40;;;;;;;5.18;1.17;;;22.60;35.60;;;;;;5067322;28;20044;-61
2021/11/27 02:52:07;;;;;;;0.90;0.90;;;22.60;35.60;;;;;;5053820;28;20085;-61
2021/11/27 02:54:35;;;;;;;1.38;1.20;;;22.60;35.60;;;;;;5045802;28;20383;-61
2021/11/27 02:57:03;;;;;;;1.10;1.10;;;22.60;35.60;;;;;;5046401;28;20058;-61
2021/11/27 02:59:30;;;;;;;1.02;1.02;;;22.60;35.60;;;;;;5046587;28;20044;-61
2021/11/27 03:02:01;;;;;;;0.90;0.90;;;22.60;36.10;;;;;;5046496;28;20109;-61
2021/11/27 03:04:33;;;;;;;1.30;1.20;;;22.60;35.60;;;;;;5064624;28;20062;-61
2021/11/27 03:07:01;;;;;;;1.42;1.33;;;22.60;35.60;;;;;;5065332;28;20048;-60
2021/11/27 03:09:29;;;;;;;1.27;1.17;;;22.60;35.60;;;;;;5067098;28;20139;-60
2021/11/27 03:11:57;;;;;;;1.35;1.10;;;22.60;35.60;;;;;;5058121;28;20459;-60
2021/11/27 03:14:26;;;;;;;1.25;1.15;;;22.60;35.60;;;;;;5060568;28;20063;-60
2021/11/27 03:16:57;;;;;;;0.93;0.93;;;22.60;35.60;;;;;;5056026;28;20629;-60
2021/11/27 03:19:31;;;;;;;1.13;1.02;;;22.60;35.60;;;;;;5046261;28;20090;-60
2021/11/27 03:21:59;;;;;;;1.10;1.00;;;22.60;35.60;;;;;;5044792;28;20066;-60
2021/11/27 03:24:27;;;;;;;1.10;1.00;;;22.60;35.60;;;;;;5044798;28;20052;-61
2021/11/27 03:26:54;;;;;;;1.25;1.08;;;22.60;35.60;;;;;;5046232;28;20471;-60
2021/11/27 03:29:21;;;;;;;1.38;1.00;;;22.60;35.50;;;;;;5046081;28;20057;-60
2021/11/27 03:31:54;;;;;;;1.20;1.10;;;22.60;35.60;;;;;;5046084;28;21357;-60
2021/11/27 03:34:21;;;;;;;0.88;0.88;;;22.60;35.50;;;;;;5062187;28;20059;-60
2021/11/27 03:36:49;;;;;;;1.15;1.05;;;22.60;35.50;;;;;;5066106;28;20048;-60
2021/11/27 03:39:16;;;;;;;1.27;1.20;;;22.60;35.50;;;;;;5048279;28;20055;-60
2021/11/27 03:41:43;;;;;;;1.27;1.17;;;22.60;35.50;;;;;;5054205;28;20067;-60
2021/11/27 03:44:10;;;;;;;0.80;0.80;;;22.60;35.50;;;;;;5059980;28;20500;-60
2021/11/27 03:46:38;;;;;;;1.25;1.17;;;22.60;35.60;;;;;;5066428;28;20051;-60
2021/11/27 03:49:05;;;;;;;1.17;1.08;;;22.50;35.50;;;;;;5065538;28;20052;-60
2021/11/27 03:51:33;;;;;;;1.05;1.05;;;22.50;35.50;;;;;;5058974;28;20080;-61
2021/11/27 03:54:01;;;;;;;1.50;1.05;;;22.50;35.50;;;;;;5043389;28;20053;-60
2021/11/27 03:56:30;;;;;;;1.35;1.25;;;22.50;35.50;;;;;;5045688;28;20627;-60
2021/11/27 03:59:01;;;;;;;1.02;0.93;;;22.50;35.60;;;;;;5045181;28;20044;-60
2021/11/27 04:01:29;;;;;;;0.90;0.90;;;22.50;35.50;;;;;;5039505;28;20048;-61
2021/11/27 04:03:57;;;;;;;1.30;1.20;;;22.50;35.60;;;;;;5046866;28;20282;-60
2021/11/27 04:06:25;;;;;;;1.05;1.02;;;22.50;35.60;;;;;;5045452;28;20053;-60
2021/11/27 04:08:54;;;;;;;0.98;0.95;;;22.50;35.60;;;;;;5045890;28;20146;-60
2021/11/27 04:11:22;;;;;;;1.40;1.30;;;22.50;35.60;;;;;;5041983;28;20091;-60
2021/11/27 04:13:50;;;;;;;1.40;1.30;;;22.50;35.60;;;;;;5054714;28;20280;-60
2021/11/27 04:16:17;;;;;;;2.40;1.40;;;22.50;35.60;;;;;;5060191;28;20110;-60
2021/11/27 04:18:45;;;;;;;1.02;1.00;;;22.50;35.60;;;;;;5041995;28;20052;-61
2021/11/27 04:21:14;;;;;;;1.05;0.95;;;22.50;35.60;;;;;;5028144;28;20063;-60
2021/11/27 04:23:42;;;;;;;0.80;0.80;;;22.50;35.60;;;;;;5040334;28;20056;-60
2021/11/27 04:26:10;;;;;;;1.40;1.30;;;22.50;35.60;;;;;;5044200;28;20448;-60
2021/11/27 04:28:38;;;;;;;1.30;1.20;;;22.50;35.60;;;;;;5044472;28;20056;-60
2021/11/27 04:31:06;;;;;;;1.30;1.20;;;22.50;35.60;;;;;;5043232;28;20048;-60
2021/11/27 04:33:34;;;;;;;1.30;0.80;;;22.50;35.60;;;;;;5050771;28;20064;-60
2021/11/27 04:36:02;;;;;;;1.05;0.95;;;22.50;35.70;;;;;;5045066;28;20488;-60
2021/11/27 04:38:30;;;;;;;0.93;0.93;;;22.50;35.70;;;;;;5044982;28;20052;-60
2021/11/27 04:40:57;;;;;;;1.95;1.17;;;22.40;35.60;;;;;;5043265;28;20110;-61
2021/11/27 04:43:25;;;;;;;1.75;1.20;;;22.40;35.60;;;;;;5040144;28;20053;-60
2021/11/27 04:45:53;;;;;;;1.05;1.05;;;22.40;35.60;;;;;;5044901;28;20056;-60
2021/11/27 04:48:20;;;;;;;1.50;1.40;;;22.40;35.60;;;;;;5042986;28;20498;-60
2021/11/27 04:50:48;;;;;;;1.20;0.90;;;22.40;35.60;;;;;;5043175;28;20040;-61
2021/11/27 04:53:16;;;;;;;1.27;1.10;;;22.40;35.60;;;;;;5052887;28;20087;-60
2021/11/27 04:55:44;;;;;;;0.98;0.98;;;22.50;35.60;;;;;;5065149;28;20047;-60
2021/11/27 04:58:12;;;;;;;1.20;1.10;;;22.40;35.60;;;;;;5065503;28;20052;-60
2021/11/27 05:00:43;;;;;;;1.05;1.00;;;22.40;35.60;;;;;;5065399;28;20051;-60
2021/11/27 05:03:10;;;;;;;0.93;0.80;;;22.40;35.60;;;;;;5044107;28;20058;-60
2021/11/27 05:05:38;;;;;;;1.65;1.30;;;22.40;35.60;;;;;;5044061;28;20148;-60
2021/11/27 05:08:07;;;;;;;1.20;1.10;;;22.40;35.60;;;;;;5044261;28;20159;-60
2021/11/27 05:10:35;;;;;;;1.00;1.00;;;22.40;35.60;;;;;;5044714;28;20080;-60
2021/11/27 05:13:03;;;;;;;1.35;1.13;;;22.40;35.60;;;;;;5037505;28;20673;-60
2021/11/27 05:15:30;;;;;;;1.30;1.20;;;22.40;35.60;;;;;;5044311;28;20125;-60
2021/11/27 05:17:57;;;;;;;1.00;0.90;;;22.40;35.60;;;;;;5043081;28;20048;-60
2021/11/27 05:20:25;;;;;;;1.30;1.20;;;22.40;35.60;;;;;;5044179;28;20053;-60
2021/11/27 05:22:52;;;;;;;1.52;1.30;;;22.50;35.60;;;;;;5042560;28;20138;-60
2021/11/27 05:25:20;;;;;;;1.00;1.00;;;22.40;35.50;;;;;;5065406;28;20048;-60
2021/11/27 05:27:47;;;;;;;0.82;0.80;;;22.50;35.50;;;;;;5064950;28;20093;-60
2021/11/27 05:30:15;;;;;;;1.30;1.20;;;22.50;35.50;;;;;;5064199;28;20086;-60
2021/11/27 05:35:29;;;;;;;1.25;1.15;;;22.40;35.50;;;;;;5063426;28;20126;-60
2021/11/27 05:37:56;;;;;;;1.15;1.05;;;22.40;35.50;;;;;;5064706;28;20060;-61
2021/11/27 05:40:24;;;;;;;1.88;1.10;;;22.40;35.50;;;;;;5068731;28;20052;-60
2021/11/27 05:42:51;;;;;;;1.50;1.40;;;22.40;35.40;;;;;;5044734;28;20668;-61
2021/11/27 05:45:19;;;;;;;1.10;1.10;;;22.40;35.40;;;;;;5047738;28;20128;-60
2021/11/27 05:47:46;;;;;;;0.80;0.80;;;22.40;35.40;;;;;;5048245;28;20091;-60
2021/11/27 05:50:13;;;;;;;1.05;0.93;;;22.40;35.40;;;;;;5048276;28;20924;-60
2021/11/27 05:52:40;;;;;;;1.65;1.15;;;22.40;35.50;;;;;;5041245;28;20048;-60
2021/11/27 05:55:08;;;;;;;1.20;1.10;;;22.40;35.50;;;;;;5047700;28;20060;-60
2021/11/27 05:57:39;;;;;;;0.80;0.80;;;22.40;35.50;;;;;;5046268;28;20056;-60
2021/11/27 06:00:07;;;;;;;1.10;1.00;;;22.40;35.50;;;;;;5047570;28;20084;-60
2021/11/27 06:02:34;;;;;;;1.02;1.00;;;22.40;35.50;;;;;;5043367;28;20048;-60
2021/11/27 06:05:01;;;;;;;0.85;0.82;;;22.40;35.50;;;;;;5067549;28;20047;-60
2021/11/27 06:07:30;;;;;;;1.00;0.98;;;22.40;35.50;;;;;;5067910;28;20741;-60
2021/11/27 06:09:57;;;;;;;1.13;1.02;;;22.40;35.50;;;;;;5067735;28;20056;-60
2021/11/27 06:12:26;;;;;;;1.48;1.30;;;22.40;35.40;;;;;;5047463;28;20109;-60
2021/11/27 06:14:53;;;;;;;1.67;1.30;;;22.40;35.30;;;;;;5048006;28;20094;-60
2021/11/27 06:17:20;;;;;;;1.67;1.58;;;22.30;35.20;;;;;;5047329;28;20106;-60
2021/11/27 06:19:48;;;;;;;2.03;1.70;;;22.40;35.20;;;;;;5047526;28;20449;-60
2021/11/27 06:22:16;;;;;;;3.10;2.28;;;22.40;35.10;;;;;;5040615;28;20048;-60
2021/11/27 06:24:44;;;;;;;2.35;2.13;;;22.40;35.00;;;;;;5046566;28;20052;-59
2021/11/27 06:27:12;;;;;;;2.10;1.90;;;22.40;34.80;;;;;;5047495;28;20068;-60
2021/11/27 06:29:39;;;;;;;2.40;2.20;;;22.40;34.70;;;;;;5047170;28;20106;-60
2021/11/27 06:32:09;;;;;;;2.20;2.00;;;22.50;34.60;;;;;;5039856;28;20048;-60
2021/11/27 06:34:36;;;;;;;3.20;2.38;;;22.50;34.40;;;;;;5042067;28;20049;-60
2021/11/27 06:37:03;;;;;;;2.60;2.40;;;22.60;34.30;;;;;;5025765;28;20045;-61
2021/11/27 06:39:31;;;;;;;2.42;2.22;;;22.70;34.20;;;;;;5027697;28;20511;-61
2021/11/27 06:41:58;;;;;;;2.30;2.10;;;22.70;34.00;;;;;;5036233;28;20092;-61
2021/11/27 06:44:26;;;;;;;3.53;2.40;;;22.80;33.90;;;;;;5064942;28;20105;-61
2021/11/27 06:46:53;;;;;;;3.33;2.85;;;22.80;33.70;;;;;;5067311;28;20048;-61
2021/11/27 06:49:21;;;;;;;2.95;2.55;;;22.90;33.60;;;;;;5064426;28;20055;-61
2021/11/27 06:51:48;;;;;;;3.38;2.88;;;22.90;33.50;;;;;;5053615;28;20072;-61
2021/11/27 06:54:16;;;;;;;3.13;2.45;;;23.00;33.40;;;;;;5046596;28;20060;-61
2021/11/27 06:56:43;;;;;;;2.95;2.30;;;23.10;33.30;;;;;;5044742;28;20052;-60
2021/11/27 06:59:10;;;;;;;3.00;2.65;;;23.10;33.20;;;;;;5046669;28;20110;-61
2021/11/27 07:01:37;;;;;;;2.80;2.55;;;23.20;33.10;;;;;;5046405;28;20584;-61
2021/11/27 07:04:05;;;;;;;3.38;2.65;;;23.30;32.90;;;;;;5059514;28;20523;-61
2021/11/27 07:06:32;;;;;;;2.78;2.13;;;23.30;32.80;;;;;;5065363;28;20051;-61
2021/11/27 07:08:59;;;;;;;2.22;2.03;;;23.40;32.70;;;;;;5066383;28;20087;-61
2021/11/27 07:11:27;;;;;;;3.00;2.45;;;23.40;32.50;;;;;;5058274;28;20390;-61
2021/11/27 07:13:54;;;;;;;3.00;2.30;;;23.50;32.40;;;;;;5036981;28;20148;-61
2021/11/27 07:16:22;;;;;;;2.67;2.47;;;23.60;32.40;;;;;;5044701;28;20102;-61
2021/11/27 07:18:49;;;;;;;2.55;2.35;;;23.60;32.20;;;;;;5045799;28;20048;-61
2021/11/27 07:21:16;;;;;;;2.60;2.40;;;23.70;32.30;;;;;;5042960;28;20084;-61
2021/11/27 07:23:43;;;;;;;2.35;2.15;;;23.70;32.10;;;;;;5039657;28;20066;-61
2021/11/27 07:26:10;;;;;;;3.05;2.47;;;23.80;32.10;;;;;;5045498;28;20083;-62
2021/11/27 07:28:37;;;;;;;3.38;2.50;;;23.80;31.90;;;;;;5046109;28;20057;-61
2021/11/27 07:31:05;;;;;;;3.88;2.80;;;23.90;31.90;;;;;;5042527;28;20084;-61
2021/11/27 07:33:34;;;;;;;2.03;1.83;;;23.90;31.90;;;;;;5046894;28;20060;-61
2021/11/27 07:36:01;;;;;;;2.10;1.90;;;23.90;31.70;;;;;;5044547;28;20045;-61
2021/11/27 07:38:29;;;;;;;2.05;1.92;;;24.00;31.70;;;;;;5046190;28;20139;-61
2021/11/27 07:40:57;;;;;;;2.60;2.40;;;24.10;31.60;;;;;;5042278;28;20048;-62
2021/11/27 07:43:25;;;;;;;2.55;2.28;;;24.10;31.50;;;;;;5038831;28;20080;-61
2021/11/27 07:45:52;;;;;;;2.60;2.40;;;24.20;31.40;;;;;;5045092;28;21010;-61
2021/11/27 07:48:20;;;;;;;2.47;2.22;;;24.30;31.40;;;;;;5045086;28;20139;-61
2021/11/27 07:50:47;;;;;;;7.53;4.38;;;24.40;31.40;;;;;;5044611;28;20083;-61
2021/11/27 07:53:15;;;;;;;4.35;3.60;;;24.50;31.20;;;;;;5039192;28;20421;-63
2021/11/27 07:55:43;;;;;;;4.85;3.50;;;24.50;31.00;;;;;;5045041;28;20532;-61
2021/11/27 07:58:10;;;;;;;4.10;3.28;;;24.60;31.00;;;;;;5044954;28;20509;-61
2021/11/27 08:00:37;;;;;;;3.40;3.08;;;24.60;30.80;;;;;;5045066;28;20053;-61
2021/11/27 08:03:05;;;;;;;3.58;3.10;;;24.70;30.80;;;;;;5041056;28;20524;-61
2021/11/27 08:05:32;;;;;;;3.97;3.03;;;24.70;30.70;;;;;;5044909;28;20044;-61
2021/11/27 08:07:59;;;;;;;4.80;3.28;;;24.80;30.70;;;;;;5044798;28;20095;-61
2021/11/27 08:10:26;;;;;;;4.80;3.70;;;24.80;30.60;;;;;;5046097;28;20094;-61
2021/11/27 08:12:54;;;;;;;3.47;3.17;;;24.90;30.60;;;;;;5037161;28;20052;-61
2021/11/27 08:15:21;;;;;;;4.30;3.70;;;24.90;30.60;;;;;;5045005;28;20083;-61
2021/11/27 08:17:48;;;;;;;4.22;3.22;;;25.00;30.50;;;;;;5045022;28;20632;-61
2021/11/27 08:20:16;;;;;;;4.45;3.40;;;25.00;30.40;;;;;;5045735;28;20523;-61
2021/11/27 08:22:43;;;;;;;5.38;3.55;;;25.10;30.40;;;;;;5047233;28;20554;-61
2021/11/27 08:25:10;;;;;;;4.72;3.40;;;25.10;30.40;;;;;;5065317;28;20083;-61
2021/11/27 08:27:38;;;;;;;4.82;3.30;;;25.10;30.20;;;;;;5064844;28;20056;-61
2021/11/27 08:30:08;;;;;;;4.43;3.20;;;25.20;30.20;;;;;;5065646;28;20105;-61
2021/11/27 08:32:36;;;;;;;3.83;3.22;;;25.20;30.10;;;;;;5052146;28;20404;-61
2021/11/27 08:35:04;;;;;;;4.03;3.35;;;25.30;30.10;;;;;;5043465;28;20049;-61
2021/11/27 08:37:31;;;;;;;3.88;2.92;;;25.30;30.10;;;;;;5042918;28;20082;-61
2021/11/27 08:40:00;;;;;;;3.53;2.80;;;25.40;30.10;;;;;;5044492;28;20048;-61
2021/11/27 08:42:28;;;;;;;3.60;3.30;;;25.40;30.00;;;;;;5044670;28;20107;-61
2021/11/27 08:44:55;;;;;;;3.47;3.08;;;25.40;30.00;;;;;;5065274;28;20128;-61
2021/11/27 08:47:22;;;;;;;3.15;2.80;;;25.40;29.90;;;;;;5064588;28;20075;-61
2021/11/27 08:49:50;;;;;;;3.58;2.65;;;25.40;29.90;;;;;;5064504;28;20480;-61
2021/11/27 08:52:17;;;;;;;2.88;2.58;;;25.50;29.90;;;;;;5053771;28;20040;-61
2021/11/27 08:54:44;;;;;;;3.65;2.92;;;25.50;29.70;;;;;;5043105;28;20135;-61
2021/11/27 08:57:11;;;;;;;3.60;3.10;;;25.60;29.70;;;;;;5044492;28;20044;-61
2021/11/27 08:59:38;;;;;;;3.15;2.67;;;25.60;29.60;;;;;;5043865;28;20052;-61
2021/11/27 09:02:06;;;;;;;3.30;2.65;;;25.70;29.60;;;;;;5034594;28;20469;-61
2021/11/27 09:04:34;;;;;;;2.58;2.38;;;25.70;29.60;;;;;;5023816;28;20056;-61
2021/11/27 09:07:03;;;;;;;2.95;2.58;;;25.70;29.50;;;;;;5024111;28;20084;-61
2021/11/27 09:09:31;;;;;;;2.72;2.47;;;25.80;29.40;;;;;;5024118;28;20089;-61
2021/11/27 09:11:59;;;;;;;3.10;2.80;;;25.80;29.40;;;;;;5029524;28;20048;-61
2021/11/27 09:14:27;;;;;;;2.17;1.98;;;25.80;29.40;;;;;;5041679;28;20048;-61
2021/11/27 09:16:54;;;;;;;2.75;2.50;;;25.80;29.30;;;;;;5044265;28;20501;-61
2021/11/27 09:19:21;;;;;;;2.88;2.58;;;25.90;29.30;;;;;;5043791;28;20082;-61
2021/11/27 09:21:50;;;;;;;2.63;2.28;;;25.90;29.30;;;;;;5043209;28;20143;-61
2021/11/27 09:24:19;;;;;;;2.72;2.50;;;25.90;29.30;;;;;;5040465;28;20056;-61
2021/11/27 09:26:48;;;;;;;2.60;2.40;;;25.90;29.20;;;;;;5043950;28;20048;-61
2021/11/27 09:29:18;;;;;;;2.47;2.28;;;26.00;29.20;;;;;;5044182;28;20052;-61
2021/11/27 09:31:46;;;;;;;2.70;2.50;;;26.00;29.20;;;;;;5042762;28;20143;-61
2021/11/27 09:34:14;;;;;;;2.13;1.92;;;26.00;29.10;;;;;;5040770;28;20133;-61
2021/11/27 09:36:43;;;;;;;2.47;2.22;;;26.00;29.10;;;;;;5044236;28;20127;-61
2021/11/27 09:39:13;;;;;;;2.50;2.30;;;26.00;29.10;;;;;;5044041;28;20083;-61
2021/11/27 09:41:44;;;;;;;2.58;2.38;;;26.00;29.10;;;;;;5043862;28;20463;-61
2021/11/27 09:44:13;;;;;;;2.50;2.30;;;26.10;29.10;;;;;;5057750;28;20205;-61
2021/11/27 09:46:42;;;;;;;2.50;2.30;;;26.10;29.00;;;;;;5063432;28;20048;-61
2021/11/27 09:49:22;;;;;;;2.55;2.35;;;26.10;29.00;;;;;;5063018;28;20512;-61
2021/11/27 09:51:55;;;;;;;1.92;1.83;;;26.10;28.90;;;;;;5025297;28;20045;-61
2021/11/27 09:54:24;;;;;;;2.22;2.03;;;26.20;29.00;;;;;;5040234;28;20056;-61
2021/11/27 09:56:55;;;;;;;2.42;2.22;;;26.20;29.40;;;;;;5030458;28;20049;-61
2021/11/27 09:59:23;;;;;;;3.78;2.45;;;26.30;28.90;;;;;;5024115;28;20500;-62
2021/11/27 10:01:52;;;;;;;2.78;2.58;;;26.30;28.80;;;;;;5028253;28;20080;-61
2021/11/27 10:04:22;;;;;;;2.63;2.42;;;26.30;28.80;;;;;;5036045;28;20236;-61
2021/11/27 10:06:50;;;;;;;2.78;2.17;;;26.30;28.70;;;;;;5037345;28;20053;-61
2021/11/27 10:09:20;;;;;;;2.40;2.20;;;26.30;28.70;;;;;;5027562;28;20076;-61
2021/11/27 10:11:48;;;;;;;;;;;26.30;28.60;;;;;;5028260;28;20130;-61
2021/11/27 10:14:16;;;;;;;2.55;2.25;;;26.30;28.60;;;;;;5037605;28;20017;-61
2021/11/27 10:17:02;;;;;;;3.17;2.88;;;26.20;28.60;;;;;;5023707;28;20080;-61
2021/11/27 10:19:50;;;;;;;2.08;1.90;;;26.20;28.70;;;;;;5022437;28;20895;-61
2021/11/27 10:22:41;;;;;;;2.20;2.00;;;26.10;28.70;;;;;;5032906;28;20138;-62
2021/11/27 10:25:24;;;;;;;2.53;2.33;;;26.10;28.70;;;;;;5039764;28;20055;-61
2021/11/27 10:28:12;;;;;;;2.30;2.10;;;26.10;28.70;;;;;;5031051;28;20053;-61
2021/11/27 10:30:54;;;;;;;2.20;2.00;;;26.00;28.70;;;;;;5044195;28;20319;-61
2021/11/27 10:33:23;;;;;;;2.42;2.22;;;26.00;28.80;;;;;;5033744;28;20079;-61
2021/11/27 10:35:57;;;;;;;2.20;1.95;;;26.00;28.80;;;;;;5036207;28;20511;-61
2021/11/27 10:38:46;;;;;;;2.80;2.60;;;26.00;28.90;;;;;;5035600;28;20450;-61
2021/11/27 10:41:16;;;;;;;2.03;1.92;;;26.00;28.90;;;;;;5028991;28;20052;-61
2021/11/27 10:44:00;;;;;;;2.47;2.28;;;26.00;28.90;;;;;;5037650;28;20044;-61
2021/11/27 10:46:30;;;;;;;2.17;1.88;;;26.00;29.00;;;;;;5037332;28;20056;-61
2021/11/27 10:48:58;;;;;;;2.33;2.00;;;25.90;29.00;;;;;;5028708;28;20407;-61
2021/11/27 10:51:26;;;;;;;1.73;1.63;;;25.90;29.00;;;;;;5035955;28;20040;-61
2021/11/27 10:53:58;;;;;;;1.92;1.83;;;25.90;29.10;;;;;;5034694;28;20099;-61
2021/11/27 10:56:42;;;;;;;1.95;1.85;;;25.90;29.10;;;;;;5042334;28;20044;-61
2021/11/27 10:59:10;;;;;;;2.33;2.13;;;25.80;29.00;;;;;;5032638;28;20091;-61
2021/11/27 11:02:05;;;;;;;1.98;1.80;;;25.80;29.00;;;;;;5028341;28;20048;-61
2021/11/27 11:04:33;;;;;;;2.30;2.10;;;25.80;29.00;;;;;;5038062;28;20092;-61
2021/11/27 11:07:14;;;;;;;2.05;1.90;;;25.80;29.10;;;;;;5034006;28;20421;-61
2021/11/27 11:10:06;;;;;;;1.95;1.85;;;25.80;29.10;;;;;;5040036;28;20080;-61
2021/11/27 11:12:56;;;;;;;1.83;1.73;;;25.70;29.10;;;;;;5041137;28;20047;-61
2021/11/27 11:15:39;;;;;;;2.28;2.13;;;25.60;29.10;;;;;;5029089;28;20490;-61
2021/11/27 11:18:21;;;;;;;2.03;1.92;;;25.60;29.20;;;;;;5036408;28;20086;-61
2021/11/27 11:20:56;;;;;;;2.70;2.20;;;25.60;29.20;;;;;;5045076;28;20063;-62
2021/11/27 11:23:30;;;;;;;2.13;2.03;;;25.50;29.30;;;;;;5038111;28;20053;-61
2021/11/27 11:26:18;;;;;;;2.20;2.00;;;25.50;29.30;;;;;;5034498;28;20084;-61
2021/11/27 11:28:52;;;;;;;2.00;1.73;;;25.40;29.30;;;;;;5034827;28;20095;-61
2021/11/27 11:31:23;;;;;;;1.90;1.80;;;25.40;29.40;;;;;;5031688;28;20086;-61
2021/11/27 11:33:53;;;;;;;2.67;2.25;;;25.40;29.40;;;;;;5039853;28;20109;-61
2021/11/27 11:36:23;;;;;;;2.33;2.13;;;25.30;29.40;;;;;;5040281;28;20076;-61
2021/11/27 11:38:53;;;;;;;2.60;2.10;;;25.30;29.50;;;;;;5030678;28;20053;-61
2021/11/27 11:41:21;;;;;;;;;;;25.30;29.60;;;;;;5031912;28;21050;-61
2021/11/27 11:43:50;;;;;;;1.90;1.80;;;25.20;29.60;;;;;;5031324;28;20353;-61
2021/11/27 11:46:17;;;;;;;2.03;1.88;;;25.20;29.60;;;;;;5037194;28;20608;-60
2021/11/27 11:48:51;;;;;;;2.10;1.90;;;25.10;29.70;;;;;;5032837;28;20135;-61
2021/11/27 11:51:46;;;;;;;2.30;2.20;;;25.10;29.70;;;;;;5028682;28;20114;-61
2021/11/27 11:54:15;;;;;;;2.28;2.08;;;25.10;29.80;;;;;;5031784;28;20144;-61
2021/11/27 11:56:44;;;;;;;1.90;1.80;;;25.10;29.80;;;;;;5025867;28;20132;-61
2021/11/27 11:59:27;;;;;;;2.58;2.38;;;25.00;29.80;;;;;;5026375;28;20056;-61
2021/11/27 12:02:27;;;;;;;2.40;2.20;;;25.00;29.90;;;;;;5036450;28;20052;-61
2021/11/27 12:05:12;;;;;;;2.63;2.42;;;25.00;29.90;;;;;;5065679;28;20052;-61
2021/11/27 12:07:52;;;;;;;2.55;2.35;;;24.90;29.90;;;;;;5064565;28;20137;-61
2021/11/27 12:10:45;;;;;;;3.00;2.70;;;24.90;30.00;;;;;;5064237;28;20105;-61
2021/11/27 12:13:22;;;;;;;2.75;2.55;;;24.90;30.00;;;;;;5051935;28;20135;-61
2021/11/27 12:16:00;;;;;;;2.72;2.47;;;25.00;30.00;;;;;;5064612;28;20052;-61
2021/11/27 12:18:28;;;;;;;2.85;2.65;;;25.00;30.00;;;;;;5066584;28;20567;-61
2021/11/27 12:21:01;;;;;;;2.85;2.55;;;25.00;30.00;;;;;;5061456;28;20051;-61
2021/11/27 12:23:36;;;;;;;3.15;2.65;;;25.00;30.00;;;;;;5051707;28;20062;-61
2021/11/27 12:26:15;;;;;;;2.88;2.63;;;25.00;30.00;;;;;;5064929;28;20453;-60
2021/11/27 12:29:09;;;;;;;3.20;2.90;;;25.10;30.00;;;;;;5065530;28;20415;-60
2021/11/27 12:31:43;;;;;;;3.85;2.70;;;25.10;30.00;;;;;;5054461;28;20615;-61
2021/11/27 12:34:29;;;;;;;3.13;2.83;;;25.10;30.00;;;;;;5042376;28;20463;-61
2021/11/27 12:36:56;;;;;;;2.95;2.75;;;25.10;30.50;;;;;;5044816;28;20147;-60
2021/11/27 12:39:33;;;;;;;3.00;2.72;;;25.10;30.00;;;;;;5057873;28;20090;-60
2021/11/27 12:42:19;;;;;;;3.58;3.28;;;25.10;30.00;;;;;;5037196;28;20052;-60
2021/11/27 12:44:50;;;;;;;3.65;3.00;;;25.10;30.00;;;;;;5025501;28;20643;-60
2021/11/27 12:47:29;;;;;;;2.90;2.70;;;25.10;30.00;;;;;;5023641;28;20045;-60
2021/11/27 12:50:03;;;;;;;2.85;2.60;;;25.10;30.00;;;;;;5024587;28;20468;-61
2021/11/27 12:52:37;;;;;;;3.45;3.00;;;25.10;30.00;;;;;;5036743;28;20660;-61
2021/11/27 12:55:28;;;;;;;2.97;2.65;;;25.10;30.00;;;;;;5045083;28;20080;-61
2021/11/27 12:57:56;;;;;;;2.80;2.50;;;25.10;30.10;;;;;;5030881;28;20052;-61
2021/11/27 13:00:26;;;;;;;3.00;2.70;;;25.10;30.10;;;;;;5044429;28;20134;-61
2021/11/27 13:03:00;;;;;;;2.97;2.70;;;25.10;30.20;;;;;;5046927;28;20078;-61
2021/11/27 13:05:31;;;;;;;2.95;2.65;;;25.10;30.10;;;;;;5044125;28;20053;-61